Stephen M. White — WCU6542 — position and weather

sailwx.info

Track history (hours):
 
Tides and Currents Weather Stations Pressure Air Temp Water Temp Dewpoint Dewpoint Depression Visibility Wind Speed Wind Dir Waves Ship Positions

Stephen M. White

Owner: LOS ANGELES, CITY OF, SAN PEDRO, CA. More information available from US FCC via Universal Licensing System and Coast Guard Vessel Documentation Center.

Last reported at 2016-Dec-09 02:09 UTC. Time now 2016-Dec-10 10:59 UTC.
Position N 33°43' W 118°16'.

Length 13 m.

Type: Other ship. MMSI: 367049470.

Date/timePositionNaut miles runAvg speedWind from/ knotsBaromVisibWave heightAir tempDewpointWater temp
2016-Dec-09 02:09N 33°43' W 118°16'0 0.0
2016-Dec-09 01:33N 33°43' W 118°16'0 0.0
2016-Dec-09 00:33N 33°43' W 118°16'0 0.0
2016-Dec-08 23:33N 33°43' W 118°16'0 0.0
2016-Dec-08 22:33N 33°43' W 118°16'5 0.6
2016-Dec-08 14:22N 33°44' W 118°10'5 1.7
2016-Dec-08 11:33N 33°43' W 118°16'  
2016-Dec-05 21:20N 33°43' W 118°16'0 0.0
2016-Dec-05 20:20N 33°43' W 118°16'0 0.0
2016-Dec-05 18:26N 33°43' W 118°16'0 0.0
2016-Dec-05 16:30N 33°43' W 118°16'0 0.0
2016-Dec-05 15:33N 33°43' W 118°16'1 0.7
2016-Dec-05 13:33N 33°42' W 118°15'1 0.5
2016-Dec-05 12:26N 33°43' W 118°15'1 0.8
2016-Dec-05 11:27N 33°43' W 118°16'0 0.2
2016-Dec-05 10:33N 33°43' W 118°16'0 0.0
2016-Dec-05 09:33N 33°43' W 118°16'0 0.0
2016-Dec-05 08:32N 33°43' W 118°16'0 0.0
2016-Dec-05 07:33N 33°43' W 118°16'0 0.0
2016-Dec-05 06:33N 33°43' W 118°16'0 0.0
2016-Dec-05 05:33N 33°43' W 118°16'2 1.6
2016-Dec-05 04:33N 33°42' W 118°15'2 1.2
2016-Dec-05 03:15N 33°43' W 118°16'0 0.0
2016-Dec-05 02:33N 33°43' W 118°16'0 0.0
2016-Dec-05 01:32N 33°43' W 118°16'0 0.0
2016-Dec-05 00:32N 33°43' W 118°16'0 0.0
2016-Dec-04 23:33N 33°43' W 118°16'0 0.0
2016-Dec-04 18:21N 33°43' W 118°16'0 0.0
2016-Dec-04 17:33N 33°43' W 118°16'0 0.0
2016-Dec-04 16:33N 33°43' W 118°16'0 0.0
2016-Dec-04 15:33N 33°43' W 118°16'0 0.0
2016-Dec-04 13:33N 33°43' W 118°16'0 0.0
2016-Dec-04 12:33N 33°43' W 118°16'3 3.2
2016-Dec-04 11:33N 33°41' W 118°14'3 3.2
2016-Dec-04 10:33N 33°43' W 118°16'0 0.0
2016-Dec-04 09:34N 33°43' W 118°16'0 0.0
2016-Dec-04 08:34N 33°43' W 118°16'0 0.0
2016-Dec-04 07:33N 33°43' W 118°16'0 0.0
2016-Dec-04 06:33N 33°43' W 118°16'0 0.0
2016-Dec-04 05:33N 33°43' W 118°16'1 1.4
2016-Dec-04 04:31N 33°43' W 118°15'1 0.6
2016-Dec-04 02:19N 33°43' W 118°16'0 0.0
2016-Dec-04 01:33N 33°43' W 118°16'0 0.0
2016-Dec-04 00:18N 33°43' W 118°16'0 0.0
2016-Dec-03 22:27N 33°43' W 118°16'0 0.0
2016-Dec-03 21:34N 33°43' W 118°16'0 0.0
2016-Dec-02 12:31N 33°43' W 118°16'0 0.0
2016-Dec-02 11:33N 33°43' W 118°16'1 0.1
2016-Dec-02 00:27N 33°43' W 118°15'1 0.6
2016-Dec-01 23:07N 33°43' W 118°16'0 0.0
2016-Dec-01 22:33N 33°43' W 118°16'0 0.0
2016-Dec-01 05:24N 33°43' W 118°16'0 0.0
2016-Dec-01 03:16N 33°43' W 118°16'0 0.5
2016-Dec-01 02:32N 33°43' W 118°16'0 0.3
2016-Dec-01 01:29N 33°43' W 118°16'1 1.0
2016-Dec-01 00:26N 33°43' W 118°15'1 0.0
2016-Nov-30 02:33N 33°43' W 118°16'0 0.0
2016-Nov-30 01:33N 33°43' W 118°16'0 0.0
2016-Nov-30 00:32N 33°43' W 118°16'3 1.3
2016-Nov-29 22:05N 33°40' W 118°15'3 0.6
2016-Nov-29 16:23N 33°43' W 118°16'0 0.0
2016-Nov-29 15:33N 33°43' W 118°16'0 0.0
2016-Nov-29 14:32N 33°43' W 118°16'1 1.5
2016-Nov-29 13:33N 33°42' W 118°15'1 1.3
2016-Nov-29 12:27N 33°43' W 118°16'  
Track history (hours):
 
Tides and Currents Weather Stations Pressure Air Temp Water Temp Dewpoint Dewpoint Depression Visibility Wind Speed Wind Dir Waves Ship Positions

Stephen M. White

Owner: LOS ANGELES, CITY OF, SAN PEDRO, CA. More information available from US FCC via Universal Licensing System and Coast Guard Vessel Documentation Center.

Last reported at 2016-Dec-09 02:09 UTC. Time now 2016-Dec-10 10:59 UTC.
Position N 33°43' W 118°16'.

Length 13 m.

Type: Other ship. MMSI: 367049470.

Date/timePositionNaut miles runAvg speedWind from/ knotsBaromVisibWave heightAir tempDewpointWater temp
2016-Dec-09 02:09N 33°43' W 118°16'0 0.0
2016-Dec-09 01:33N 33°43' W 118°16'0 0.0
2016-Dec-09 00:33N 33°43' W 118°16'0 0.0
2016-Dec-08 23:33N 33°43' W 118°16'0 0.0
2016-Dec-08 22:33N 33°43' W 118°16'5 0.6
2016-Dec-08 14:22N 33°44' W 118°10'5 1.7
2016-Dec-08 11:33N 33°43' W 118°16'  
2016-Dec-05 21:20N 33°43' W 118°16'0 0.0
2016-Dec-05 20:20N 33°43' W 118°16'0 0.0
2016-Dec-05 18:26N 33°43' W 118°16'0 0.0
2016-Dec-05 16:30N 33°43' W 118°16'0 0.0
2016-Dec-05 15:33N 33°43' W 118°16'1 0.7
2016-Dec-05 13:33N 33°42' W 118°15'1 0.5
2016-Dec-05 12:26N 33°43' W 118°15'1 0.8
2016-Dec-05 11:27N 33°43' W 118°16'0 0.2
2016-Dec-05 10:33N 33°43' W 118°16'0 0.0
2016-Dec-05 09:33N 33°43' W 118°16'0 0.0
2016-Dec-05 08:32N 33°43' W 118°16'0 0.0
2016-Dec-05 07:33N 33°43' W 118°16'0 0.0
2016-Dec-05 06:33N 33°43' W 118°16'0 0.0
2016-Dec-05 05:33N 33°43' W 118°16'2 1.6
2016-Dec-05 04:33N 33°42' W 118°15'2 1.2
2016-Dec-05 03:15N 33°43' W 118°16'0 0.0
2016-Dec-05 02:33N 33°43' W 118°16'0 0.0
2016-Dec-05 01:32N 33°43' W 118°16'0 0.0
2016-Dec-05 00:32N 33°43' W 118°16'0 0.0
2016-Dec-04 23:33N 33°43' W 118°16'0 0.0
2016-Dec-04 18:21N 33°43' W 118°16'0 0.0
2016-Dec-04 17:33N 33°43' W 118°16'0 0.0
2016-Dec-04 16:33N 33°43' W 118°16'0 0.0
2016-Dec-04 15:33N 33°43' W 118°16'0 0.0
2016-Dec-04 13:33N 33°43' W 118°16'0 0.0
2016-Dec-04 12:33N 33°43' W 118°16'3 3.2
2016-Dec-04 11:33N 33°41' W 118°14'3 3.2
2016-Dec-04 10:33N 33°43' W 118°16'0 0.0
2016-Dec-04 09:34N 33°43' W 118°16'0 0.0
2016-Dec-04 08:34N 33°43' W 118°16'0 0.0
2016-Dec-04 07:33N 33°43' W 118°16'0 0.0
2016-Dec-04 06:33N 33°43' W 118°16'0 0.0
2016-Dec-04 05:33N 33°43' W 118°16'1 1.4
2016-Dec-04 04:31N 33°43' W 118°15'1 0.6
2016-Dec-04 02:19N 33°43' W 118°16'0 0.0
2016-Dec-04 01:33N 33°43' W 118°16'0 0.0
2016-Dec-04 00:18N 33°43' W 118°16'0 0.0
2016-Dec-03 22:27N 33°43' W 118°16'0 0.0
2016-Dec-03 21:34N 33°43' W 118°16'0 0.0
2016-Dec-02 12:31N 33°43' W 118°16'0 0.0
2016-Dec-02 11:33N 33°43' W 118°16'1 0.1
2016-Dec-02 00:27N 33°43' W 118°15'1 0.6
2016-Dec-01 23:07N 33°43' W 118°16'0 0.0
2016-Dec-01 22:33N 33°43' W 118°16'0 0.0
2016-Dec-01 05:24N 33°43' W 118°16'0 0.0
2016-Dec-01 03:16N 33°43' W 118°16'0 0.5
2016-Dec-01 02:32N 33°43' W 118°16'0 0.3
2016-Dec-01 01:29N 33°43' W 118°16'1 1.0
2016-Dec-01 00:26N 33°43' W 118°15'1 0.0
2016-Nov-30 02:33N 33°43' W 118°16'0 0.0
2016-Nov-30 01:33N 33°43' W 118°16'0 0.0
2016-Nov-30 00:32N 33°43' W 118°16'3 1.3
2016-Nov-29 22:05N 33°40' W 118°15'3 0.6
2016-Nov-29 16:23N 33°43' W 118°16'0 0.0
2016-Nov-29 15:33N 33°43' W 118°16'0 0.0
2016-Nov-29 14:32N 33°43' W 118°16'1 1.5
2016-Nov-29 13:33N 33°42' W 118°15'1 1.3
2016-Nov-29 12:27N 33°43' W 118°16'  

Dump ship's entire track history